sensor_id;sensor_type;location;lat;lon;timestamp;temperature;humidity
75155;HTU21D;63735;44.730;37.818;2022-11-20T00:01:54;15.84;87.10
75155;HTU21D;63735;44.730;37.818;2022-11-20T00:04:19;15.85;87.18
75155;HTU21D;63735;44.730;37.818;2022-11-20T00:06:46;15.88;87.19
75155;HTU21D;63735;44.730;37.818;2022-11-20T00:09:12;15.89;87.17
75155;HTU21D;63735;44.730;37.818;2022-11-20T00:11:38;15.90;87.19
75155;HTU21D;63735;44.730;37.818;2022-11-20T00:14:04;15.90;87.20
75155;HTU21D;63735;44.730;37.818;2022-11-20T00:16:31;15.91;87.24
75155;HTU21D;63735;44.730;37.818;2022-11-20T00:18:57;15.95;87.25
75155;HTU21D;63735;44.730;37.818;2022-11-20T00:21:25;15.93;87.32
75155;HTU21D;63735;44.730;37.818;2022-11-20T00:23:53;15.92;87.26
75155;HTU21D;63735;44.730;37.818;2022-11-20T00:26:20;15.93;87.27
75155;HTU21D;63735;44.730;37.818;2022-11-20T00:28:55;15.95;87.22
75155;HTU21D;63735;44.730;37.818;2022-11-20T00:31:21;15.95;87.16
75155;HTU21D;63735;44.730;37.818;2022-11-20T00:33:47;15.96;87.13
75155;HTU21D;63735;44.730;37.818;2022-11-20T00:36:19;15.97;87.15
75155;HTU21D;63735;44.730;37.818;2022-11-20T00:38:45;15.98;87.06
75155;HTU21D;63735;44.730;37.818;2022-11-20T00:41:13;15.99;87.00
75155;HTU21D;63735;44.730;37.818;2022-11-20T00:43:40;16.00;86.97
75155;HTU21D;63735;44.730;37.818;2022-11-20T00:46:14;15.99;86.90
75155;HTU21D;63735;44.730;37.818;2022-11-20T00:48:40;15.98;86.83
75155;HTU21D;63735;44.730;37.818;2022-11-20T00:51:06;15.97;86.80
75155;HTU21D;63735;44.730;37.818;2022-11-20T00:53:32;15.95;86.77
75155;HTU21D;63735;44.730;37.818;2022-11-20T00:56:00;15.91;86.74
75155;HTU21D;63735;44.730;37.818;2022-11-20T00:58:30;15.90;86.72
75155;HTU21D;63735;44.730;37.818;2022-11-20T01:01:08;15.90;86.67
75155;HTU21D;63735;44.730;37.818;2022-11-20T01:03:35;15.89;86.58
75155;HTU21D;63735;44.730;37.818;2022-11-20T01:06:04;15.90;86.51
75155;HTU21D;63735;44.730;37.818;2022-11-20T01:08:32;15.90;86.41
75155;HTU21D;63735;44.730;37.818;2022-11-20T01:11:01;15.91;86.31
75155;HTU21D;63735;44.730;37.818;2022-11-20T01:13:29;15.91;86.21
75155;HTU21D;63735;44.730;37.818;2022-11-20T01:18:38;15.92;86.04
75155;HTU21D;63735;44.730;37.818;2022-11-20T01:21:07;15.92;85.94
75155;HTU21D;63735;44.730;37.818;2022-11-20T01:23:35;15.95;85.83
75155;HTU21D;63735;44.730;37.818;2022-11-20T01:26:04;15.97;85.74
75155;HTU21D;63735;44.730;37.818;2022-11-20T01:28:31;15.96;85.69
75155;HTU21D;63735;44.730;37.818;2022-11-20T01:30:57;15.96;85.65
75155;HTU21D;63735;44.730;37.818;2022-11-20T01:33:23;15.97;85.61
75155;HTU21D;63735;44.730;37.818;2022-11-20T01:35:49;15.98;85.56
75155;HTU21D;63735;44.730;37.818;2022-11-20T01:38:16;15.99;85.51
75155;HTU21D;63735;44.730;37.818;2022-11-20T01:40:42;15.99;85.48
75155;HTU21D;63735;44.730;37.818;2022-11-20T01:43:18;15.99;85.50
75155;HTU21D;63735;44.730;37.818;2022-11-20T01:45:58;16.00;85.46
75155;HTU21D;63735;44.730;37.818;2022-11-20T01:48:28;16.01;85.42
75155;HTU21D;63735;44.730;37.818;2022-11-20T01:50:56;16.02;85.41
75155;HTU21D;63735;44.730;37.818;2022-11-20T01:53:25;16.03;85.38
75155;HTU21D;63735;44.730;37.818;2022-11-20T01:55:56;16.02;85.35
75155;HTU21D;63735;44.730;37.818;2022-11-20T01:58:28;16.02;85.35
75155;HTU21D;63735;44.730;37.818;2022-11-20T02:00:56;16.03;85.34
75155;HTU21D;63735;44.730;37.818;2022-11-20T02:03:22;16.05;85.31
75155;HTU21D;63735;44.730;37.818;2022-11-20T02:08:32;16.05;85.32
75155;HTU21D;63735;44.730;37.818;2022-11-20T02:10:58;16.05;85.34
75155;HTU21D;63735;44.730;37.818;2022-11-20T02:13:24;16.06;85.38
75155;HTU21D;63735;44.730;37.818;2022-11-20T02:16:33;16.10;85.42
75155;HTU21D;63735;44.730;37.818;2022-11-20T02:19:02;16.12;85.38
75155;HTU21D;63735;44.730;37.818;2022-11-20T02:22:05;16.13;85.42
75155;HTU21D;63735;44.730;37.818;2022-11-20T02:24:22;16.14;85.48
75155;HTU21D;63735;44.730;37.818;2022-11-20T02:27:17;16.15;85.53
75155;HTU21D;63735;44.730;37.818;2022-11-20T02:32:24;16.17;85.50
75155;HTU21D;63735;44.730;37.818;2022-11-20T02:34:51;16.19;85.48
75155;HTU21D;63735;44.730;37.818;2022-11-20T02:37:18;16.18;85.49
75155;HTU21D;63735;44.730;37.818;2022-11-20T02:39:47;16.19;85.46
75155;HTU21D;63735;44.730;37.818;2022-11-20T02:42:14;16.20;85.42
75155;HTU21D;63735;44.730;37.818;2022-11-20T02:44:40;16.20;85.44
75155;HTU21D;63735;44.730;37.818;2022-11-20T02:47:06;16.21;85.40
75155;HTU21D;63735;44.730;37.818;2022-11-20T02:49:32;16.22;85.38
75155;HTU21D;63735;44.730;37.818;2022-11-20T02:51:59;16.24;85.37
75155;HTU21D;63735;44.730;37.818;2022-11-20T02:54:25;16.27;85.35
75155;HTU21D;63735;44.730;37.818;2022-11-20T02:56:51;16.29;85.32
75155;HTU21D;63735;44.730;37.818;2022-11-20T02:59:17;16.29;85.29
75155;HTU21D;63735;44.730;37.818;2022-11-20T03:01:43;16.29;85.26
75155;HTU21D;63735;44.730;37.818;2022-11-20T03:04:09;16.29;85.27
75155;HTU21D;63735;44.730;37.818;2022-11-20T03:06:35;16.29;85.32
75155;HTU21D;63735;44.730;37.818;2022-11-20T03:09:01;16.29;85.32
75155;HTU21D;63735;44.730;37.818;2022-11-20T03:11:26;16.28;85.43
75155;HTU21D;63735;44.730;37.818;2022-11-20T03:13:52;16.27;85.45
75155;HTU21D;63735;44.730;37.818;2022-11-20T03:16:21;16.27;85.45
75155;HTU21D;63735;44.730;37.818;2022-11-20T03:18:47;16.25;85.49
75155;HTU21D;63735;44.730;37.818;2022-11-20T03:21:15;16.20;85.55
75155;HTU21D;63735;44.730;37.818;2022-11-20T03:23:41;16.18;85.64
75155;HTU21D;63735;44.730;37.818;2022-11-20T03:26:09;16.17;85.70
75155;HTU21D;63735;44.730;37.818;2022-11-20T03:28:35;16.16;85.70
75155;HTU21D;63735;44.730;37.818;2022-11-20T03:31:07;16.14;85.74
75155;HTU21D;63735;44.730;37.818;2022-11-20T03:33:34;16.13;85.78
75155;HTU21D;63735;44.730;37.818;2022-11-20T03:36:04;16.13;85.79
75155;HTU21D;63735;44.730;37.818;2022-11-20T03:38:31;16.15;85.77
75155;HTU21D;63735;44.730;37.818;2022-11-20T03:41:01;16.16;85.76
75155;HTU21D;63735;44.730;37.818;2022-11-20T03:43:27;16.17;85.76
75155;HTU21D;63735;44.730;37.818;2022-11-20T03:45:53;16.18;85.74
75155;HTU21D;63735;44.730;37.818;2022-11-20T03:48:19;16.17;85.77
75155;HTU21D;63735;44.730;37.818;2022-11-20T03:50:45;16.18;85.79
75155;HTU21D;63735;44.730;37.818;2022-11-20T03:53:14;16.19;85.80
75155;HTU21D;63735;44.730;37.818;2022-11-20T03:55:40;16.20;85.79
75155;HTU21D;63735;44.730;37.818;2022-11-20T03:58:06;16.19;85.74
75155;HTU21D;63735;44.730;37.818;2022-11-20T04:00:31;16.19;85.76
75155;HTU21D;63735;44.730;37.818;2022-11-20T04:02:58;16.17;85.83
75155;HTU21D;63735;44.730;37.818;2022-11-20T04:05:25;16.17;85.92
75155;HTU21D;63735;44.730;37.818;2022-11-20T04:07:51;16.13;85.94
75155;HTU21D;63735;44.730;37.818;2022-11-20T04:10:17;16.13;86.03
75155;HTU21D;63735;44.730;37.818;2022-11-20T04:12:43;16.13;86.03
75155;HTU21D;63735;44.730;37.818;2022-11-20T04:15:09;16.14;86.03
75155;HTU21D;63735;44.730;37.818;2022-11-20T04:17:35;16.14;86.02
75155;HTU21D;63735;44.730;37.818;2022-11-20T04:20:01;16.15;86.01
75155;HTU21D;63735;44.730;37.818;2022-11-20T04:22:27;16.15;86.00
75155;HTU21D;63735;44.730;37.818;2022-11-20T04:24:53;16.16;86.01
75155;HTU21D;63735;44.730;37.818;2022-11-20T04:27:19;16.16;86.03
75155;HTU21D;63735;44.730;37.818;2022-11-20T04:29:45;16.17;86.03
75155;HTU21D;63735;44.730;37.818;2022-11-20T04:32:11;16.18;86.00
75155;HTU21D;63735;44.730;37.818;2022-11-20T04:34:37;16.17;86.02
75155;HTU21D;63735;44.730;37.818;2022-11-20T04:37:02;16.18;86.08
75155;HTU21D;63735;44.730;37.818;2022-11-20T04:39:28;16.17;86.11
75155;HTU21D;63735;44.730;37.818;2022-11-20T04:41:54;16.18;86.14
75155;HTU21D;63735;44.730;37.818;2022-11-20T04:44:39;16.18;86.11
75155;HTU21D;63735;44.730;37.818;2022-11-20T04:47:05;16.19;86.08
75155;HTU21D;63735;44.730;37.818;2022-11-20T04:49:31;16.19;86.04
75155;HTU21D;63735;44.730;37.818;2022-11-20T04:51:57;16.19;86.03
75155;HTU21D;63735;44.730;37.818;2022-11-20T04:54:23;16.20;86.00
75155;HTU21D;63735;44.730;37.818;2022-11-20T04:56:50;16.21;85.93
75155;HTU21D;63735;44.730;37.818;2022-11-20T04:59:16;16.25;85.78
75155;HTU21D;63735;44.730;37.818;2022-11-20T05:01:42;16.29;85.64
75155;HTU21D;63735;44.730;37.818;2022-11-20T05:04:08;16.32;85.33
75155;HTU21D;63735;44.730;37.818;2022-11-20T05:06:34;16.36;85.08
75155;HTU21D;63735;44.730;37.818;2022-11-20T05:08:59;16.41;84.90
75155;HTU21D;63735;44.730;37.818;2022-11-20T05:11:26;16.42;84.72
75155;HTU21D;63735;44.730;37.818;2022-11-20T05:13:54;16.47;84.52
75155;HTU21D;63735;44.730;37.818;2022-11-20T05:16:22;16.52;84.21
75155;HTU21D;63735;44.730;37.818;2022-11-20T05:18:49;16.56;84.00
75155;HTU21D;63735;44.730;37.818;2022-11-20T05:21:16;16.58;83.53
75155;HTU21D;63735;44.730;37.818;2022-11-20T05:23:43;16.63;83.32
75155;HTU21D;63735;44.730;37.818;2022-11-20T05:26:17;16.65;83.13
75155;HTU21D;63735;44.730;37.818;2022-11-20T05:28:43;16.67;83.09
75155;HTU21D;63735;44.730;37.818;2022-11-20T05:31:12;16.71;82.88
75155;HTU21D;63735;44.730;37.818;2022-11-20T05:33:43;16.74;82.74
75155;HTU21D;63735;44.730;37.818;2022-11-20T05:36:10;16.71;82.68
75155;HTU21D;63735;44.730;37.818;2022-11-20T05:38:36;16.66;82.62
75155;HTU21D;63735;44.730;37.818;2022-11-20T05:41:11;16.64;82.55
75155;HTU21D;63735;44.730;37.818;2022-11-20T05:43:39;16.64;82.39
75155;HTU21D;63735;44.730;37.818;2022-11-20T05:46:06;16.63;82.33
75155;HTU21D;63735;44.730;37.818;2022-11-20T05:48:33;16.64;82.25
75155;HTU21D;63735;44.730;37.818;2022-11-20T05:51:00;16.69;82.14
75155;HTU21D;63735;44.730;37.818;2022-11-20T05:53:26;16.70;81.97
75155;HTU21D;63735;44.730;37.818;2022-11-20T05:56:05;16.72;81.81
75155;HTU21D;63735;44.730;37.818;2022-11-20T05:58:32;16.74;81.63
75155;HTU21D;63735;44.730;37.818;2022-11-20T06:01:10;16.77;81.48
75155;HTU21D;63735;44.730;37.818;2022-11-20T06:03:36;16.81;81.39
75155;HTU21D;63735;44.730;37.818;2022-11-20T06:06:03;16.86;81.21
75155;HTU21D;63735;44.730;37.818;2022-11-20T06:08:30;16.88;81.04
75155;HTU21D;63735;44.730;37.818;2022-11-20T06:10:56;16.91;80.98
75155;HTU21D;63735;44.730;37.818;2022-11-20T06:13:23;16.92;80.97
75155;HTU21D;63735;44.730;37.818;2022-11-20T06:15:50;16.93;80.89
75155;HTU21D;63735;44.730;37.818;2022-11-20T06:18:16;16.95;80.79
75155;HTU21D;63735;44.730;37.818;2022-11-20T06:20:41;16.95;80.77
75155;HTU21D;63735;44.730;37.818;2022-11-20T06:23:07;16.99;80.75
75155;HTU21D;63735;44.730;37.818;2022-11-20T06:25:37;16.95;80.84
75155;HTU21D;63735;44.730;37.818;2022-11-20T06:28:04;16.93;80.95
75155;HTU21D;63735;44.730;37.818;2022-11-20T06:30:29;16.89;81.02
75155;HTU21D;63735;44.730;37.818;2022-11-20T06:32:55;16.87;81.04
75155;HTU21D;63735;44.730;37.818;2022-11-20T06:35:21;16.79;81.12
75155;HTU21D;63735;44.730;37.818;2022-11-20T06:37:47;16.74;81.33
75155;HTU21D;63735;44.730;37.818;2022-11-20T06:40:13;16.75;81.30
75155;HTU21D;63735;44.730;37.818;2022-11-20T06:42:39;16.71;81.33
75155;HTU21D;63735;44.730;37.818;2022-11-20T06:45:05;16.62;81.57
75155;HTU21D;63735;44.730;37.818;2022-11-20T06:47:31;16.55;81.86
75155;HTU21D;63735;44.730;37.818;2022-11-20T06:49:57;16.50;82.03
75155;HTU21D;63735;44.730;37.818;2022-11-20T06:52:23;16.50;82.10
75155;HTU21D;63735;44.730;37.818;2022-11-20T06:54:49;16.52;82.11
75155;HTU21D;63735;44.730;37.818;2022-11-20T06:57:15;16.59;82.08
75155;HTU21D;63735;44.730;37.818;2022-11-20T06:59:41;16.62;82.06
75155;HTU21D;63735;44.730;37.818;2022-11-20T07:02:10;16.66;81.92
75155;HTU21D;63735;44.730;37.818;2022-11-20T07:04:37;16.70;81.87
75155;HTU21D;63735;44.730;37.818;2022-11-20T07:07:03;16.73;81.76
75155;HTU21D;63735;44.730;37.818;2022-11-20T07:09:29;16.78;81.68
75155;HTU21D;63735;44.730;37.818;2022-11-20T07:11:55;16.85;81.52
75155;HTU21D;63735;44.730;37.818;2022-11-20T07:14:21;16.87;81.35
75155;HTU21D;63735;44.730;37.818;2022-11-20T07:16:47;16.88;81.22
75155;HTU21D;63735;44.730;37.818;2022-11-20T07:19:13;16.91;81.14
75155;HTU21D;63735;44.730;37.818;2022-11-20T07:21:39;16.98;80.87
75155;HTU21D;63735;44.730;37.818;2022-11-20T07:24:05;17.00;80.73
75155;HTU21D;63735;44.730;37.818;2022-11-20T07:26:30;17.04;80.62
75155;HTU21D;63735;44.730;37.818;2022-11-20T07:28:56;17.07;80.51
75155;HTU21D;63735;44.730;37.818;2022-11-20T07:31:22;17.09;80.44
75155;HTU21D;63735;44.730;37.818;2022-11-20T07:33:48;17.13;80.33
75155;HTU21D;63735;44.730;37.818;2022-11-20T07:36:14;17.11;80.23
75155;HTU21D;63735;44.730;37.818;2022-11-20T07:38:40;17.15;80.09
75155;HTU21D;63735;44.730;37.818;2022-11-20T07:41:06;17.17;79.80
75155;HTU21D;63735;44.730;37.818;2022-11-20T07:43:32;17.22;79.56
75155;HTU21D;63735;44.730;37.818;2022-11-20T07:45:59;17.26;79.23
75155;HTU21D;63735;44.730;37.818;2022-11-20T07:48:25;17.30;79.14
75155;HTU21D;63735;44.730;37.818;2022-11-20T07:50:57;17.35;78.85
75155;HTU21D;63735;44.730;37.818;2022-11-20T07:53:24;17.44;78.46
75155;HTU21D;63735;44.730;37.818;2022-11-20T07:55:50;17.50;77.83
75155;HTU21D;63735;44.730;37.818;2022-11-20T07:58:19;17.55;77.45
75155;HTU21D;63735;44.730;37.818;2022-11-20T08:00:45;17.64;77.37
75155;HTU21D;63735;44.730;37.818;2022-11-20T08:03:11;17.70;76.59
75155;HTU21D;63735;44.730;37.818;2022-11-20T08:05:37;17.80;76.57
75155;HTU21D;63735;44.730;37.818;2022-11-20T08:08:03;17.88;76.21
75155;HTU21D;63735;44.730;37.818;2022-11-20T08:10:29;17.94;75.67
75155;HTU21D;63735;44.730;37.818;2022-11-20T08:12:55;18.02;74.98
75155;HTU21D;63735;44.730;37.818;2022-11-20T08:15:40;18.13;74.53
75155;HTU21D;63735;44.730;37.818;2022-11-20T08:18:08;18.24;73.95
75155;HTU21D;63735;44.730;37.818;2022-11-20T08:20:35;18.25;73.93
75155;HTU21D;63735;44.730;37.818;2022-11-20T08:23:02;18.26;73.77
75155;HTU21D;63735;44.730;37.818;2022-11-20T08:25:29;18.33;73.50
75155;HTU21D;63735;44.730;37.818;2022-11-20T08:27:59;18.40;73.29
75155;HTU21D;63735;44.730;37.818;2022-11-20T08:30:25;18.47;73.11
75155;HTU21D;63735;44.730;37.818;2022-11-20T08:32:52;18.49;72.99
75155;HTU21D;63735;44.730;37.818;2022-11-20T08:35:18;18.55;72.67
75155;HTU21D;63735;44.730;37.818;2022-11-20T08:37:46;18.70;72.10
75155;HTU21D;63735;44.730;37.818;2022-11-20T08:40:12;18.79;71.22
75155;HTU21D;63735;44.730;37.818;2022-11-20T08:42:48;18.70;71.22
75155;HTU21D;63735;44.730;37.818;2022-11-20T08:45:15;18.56;71.55
75155;HTU21D;63735;44.730;37.818;2022-11-20T08:47:42;18.53;71.77
75155;HTU21D;63735;44.730;37.818;2022-11-20T08:50:09;18.54;71.68
75155;HTU21D;63735;44.730;37.818;2022-11-20T08:52:35;18.62;71.53
75155;HTU21D;63735;44.730;37.818;2022-11-20T08:55:03;18.95;70.71
75155;HTU21D;63735;44.730;37.818;2022-11-20T08:57:34;19.20;69.21
75155;HTU21D;63735;44.730;37.818;2022-11-20T09:00:02;19.33;69.39
75155;HTU21D;63735;44.730;37.818;2022-11-20T09:02:30;19.60;68.84
75155;HTU21D;63735;44.730;37.818;2022-11-20T09:04:56;19.90;67.58
75155;HTU21D;63735;44.730;37.818;2022-11-20T09:07:22;20.12;67.11
75155;HTU21D;63735;44.730;37.818;2022-11-20T09:09:47;20.16;67.23
75155;HTU21D;63735;44.730;37.818;2022-11-20T09:12:13;19.96;66.89
75155;HTU21D;63735;44.730;37.818;2022-11-20T09:14:39;19.72;67.30
75155;HTU21D;63735;44.730;37.818;2022-11-20T09:17:05;19.59;67.94
75155;HTU21D;63735;44.730;37.818;2022-11-20T09:19:33;19.53;68.10
75155;HTU21D;63735;44.730;37.818;2022-11-20T09:21:59;19.44;67.72
75155;HTU21D;63735;44.730;37.818;2022-11-20T09:24:26;19.38;68.00
75155;HTU21D;63735;44.730;37.818;2022-11-20T09:26:52;19.40;67.68
75155;HTU21D;63735;44.730;37.818;2022-11-20T09:29:18;19.62;67.25
75155;HTU21D;63735;44.730;37.818;2022-11-20T09:31:44;20.03;66.65
75155;HTU21D;63735;44.730;37.818;2022-11-20T09:34:09;20.19;65.96
75155;HTU21D;63735;44.730;37.818;2022-11-20T09:36:35;20.41;65.59
75155;HTU21D;63735;44.730;37.818;2022-11-20T09:39:02;20.73;65.00
75155;HTU21D;63735;44.730;37.818;2022-11-20T09:50:45;21.57;63.15
75155;HTU21D;63735;44.730;37.818;2022-11-20T09:53:30;21.63;62.29
75155;HTU21D;63735;44.730;37.818;2022-11-20T09:56:01;21.82;62.36
75155;HTU21D;63735;44.730;37.818;2022-11-20T09:58:32;21.69;61.87
75155;HTU21D;63735;44.730;37.818;2022-11-20T10:01:14;21.37;62.33
75155;HTU21D;63735;44.730;37.818;2022-11-20T10:06:37;21.02;62.94
75155;HTU21D;63735;44.730;37.818;2022-11-20T10:09:48;20.89;62.32
75155;HTU21D;63735;44.730;37.818;2022-11-20T10:12:25;20.70;62.42
75155;HTU21D;63735;44.730;37.818;2022-11-20T10:25:45;20.71;61.26
75155;HTU21D;63735;44.730;37.818;2022-11-20T10:31:01;20.45;60.91
75155;HTU21D;63735;44.730;37.818;2022-11-20T10:33:33;20.25;60.86
75155;HTU21D;63735;44.730;37.818;2022-11-20T10:36:16;20.04;61.50
75155;HTU21D;63735;44.730;37.818;2022-11-20T10:38:50;20.04;61.54
75155;HTU21D;63735;44.730;37.818;2022-11-20T10:41:24;19.98;61.39
75155;HTU21D;63735;44.730;37.818;2022-11-20T10:46:22;20.31;60.67
75155;HTU21D;63735;44.730;37.818;2022-11-20T10:48:49;20.53;60.34
75155;HTU21D;63735;44.730;37.818;2022-11-20T10:51:30;20.65;60.17
75155;HTU21D;63735;44.730;37.818;2022-11-20T10:54:19;20.91;59.88
75155;HTU21D;63735;44.730;37.818;2022-11-20T10:56:52;20.96;59.19
75155;HTU21D;63735;44.730;37.818;2022-11-20T10:59:41;20.90;59.16
75155;HTU21D;63735;44.730;37.818;2022-11-20T11:02:32;20.86;59.17
75155;HTU21D;63735;44.730;37.818;2022-11-20T11:05:49;20.80;59.64
75155;HTU21D;63735;44.730;37.818;2022-11-20T11:07:57;20.84;59.67
75155;HTU21D;63735;44.730;37.818;2022-11-20T11:13:26;20.60;59.51
75155;HTU21D;63735;44.730;37.818;2022-11-20T11:15:52;20.63;59.45
75155;HTU21D;63735;44.730;37.818;2022-11-20T11:18:30;20.63;59.54
75155;HTU21D;63735;44.730;37.818;2022-11-20T11:20:57;20.68;59.32
75155;HTU21D;63735;44.730;37.818;2022-11-20T11:26:00;20.45;59.82
75155;HTU21D;63735;44.730;37.818;2022-11-20T11:28:27;20.47;59.67
75155;HTU21D;63735;44.730;37.818;2022-11-20T11:30:54;20.41;59.92
75155;HTU21D;63735;44.730;37.818;2022-11-20T11:33:25;20.35;59.80
75155;HTU21D;63735;44.730;37.818;2022-11-20T11:35:54;20.39;59.73
75155;HTU21D;63735;44.730;37.818;2022-11-20T11:38:53;20.33;59.88
75155;HTU21D;63735;44.730;37.818;2022-11-20T11:41:32;20.10;59.80
75155;HTU21D;63735;44.730;37.818;2022-11-20T11:47:00;19.91;60.64
75155;HTU21D;63735;44.730;37.818;2022-11-20T11:49:28;19.88;60.51
75155;HTU21D;63735;44.730;37.818;2022-11-20T11:52:17;19.80;60.51
75155;HTU21D;63735;44.730;37.818;2022-11-20T12:00:10;19.43;61.49
75155;HTU21D;63735;44.730;37.818;2022-11-20T12:05:47;19.62;61.26
75155;HTU21D;63735;44.730;37.818;2022-11-20T12:08:18;19.89;61.02
75155;HTU21D;63735;44.730;37.818;2022-11-20T12:16:24;19.92;60.00
75155;HTU21D;63735;44.730;37.818;2022-11-20T12:18:51;19.80;60.25
75155;HTU21D;63735;44.730;37.818;2022-11-20T12:21:28;19.83;60.28
75155;HTU21D;63735;44.730;37.818;2022-11-20T12:24:06;19.98;60.42
75155;HTU21D;63735;44.730;37.818;2022-11-20T12:26:50;20.30;60.34
75155;HTU21D;63735;44.730;37.818;2022-11-20T12:29:32;20.54;59.93
75155;HTU21D;63735;44.730;37.818;2022-11-20T12:37:36;20.75;59.30
75155;HTU21D;63735;44.730;37.818;2022-11-20T12:43:27;20.84;59.44
75155;HTU21D;63735;44.730;37.818;2022-11-20T12:48:46;20.73;59.30
75155;HTU21D;63735;44.730;37.818;2022-11-20T13:05:19;20.37;59.66
75155;HTU21D;63735;44.730;37.818;2022-11-20T13:07:47;20.07;60.02
75155;HTU21D;63735;44.730;37.818;2022-11-20T13:10:37;19.77;60.25
75155;HTU21D;63735;44.730;37.818;2022-11-20T13:13:29;19.43;60.63
75155;HTU21D;63735;44.730;37.818;2022-11-20T13:16:12;19.18;60.95
75155;HTU21D;63735;44.730;37.818;2022-11-20T13:18:40;19.00;61.28
75155;HTU21D;63735;44.730;37.818;2022-11-20T13:21:20;18.84;61.79
75155;HTU21D;63735;44.730;37.818;2022-11-20T13:23:46;18.73;62.03
75155;HTU21D;63735;44.730;37.818;2022-11-20T13:26:18;18.62;62.44
75155;HTU21D;63735;44.730;37.818;2022-11-20T13:28:46;18.53;62.86
75155;HTU21D;63735;44.730;37.818;2022-11-20T13:31:29;18.41;63.31
75155;HTU21D;63735;44.730;37.818;2022-11-20T13:33:56;18.36;63.63
75155;HTU21D;63735;44.730;37.818;2022-11-20T13:36:25;18.28;63.84
75155;HTU21D;63735;44.730;37.818;2022-11-20T13:38:53;18.25;64.11
75155;HTU21D;63735;44.730;37.818;2022-11-20T13:41:34;18.23;64.24
75155;HTU21D;63735;44.730;37.818;2022-11-20T13:44:14;18.19;64.24
75155;HTU21D;63735;44.730;37.818;2022-11-20T13:46:43;18.17;64.47
75155;HTU21D;63735;44.730;37.818;2022-11-20T13:49:18;18.10;64.59
75155;HTU21D;63735;44.730;37.818;2022-11-20T13:51:49;18.09;64.65
75155;HTU21D;63735;44.730;37.818;2022-11-20T13:54:41;18.11;64.59
75155;HTU21D;63735;44.730;37.818;2022-11-20T13:57:13;18.11;64.59
75155;HTU21D;63735;44.730;37.818;2022-11-20T14:02:40;17.98;64.92
75155;HTU21D;63735;44.730;37.818;2022-11-20T14:05:19;17.96;65.08
75155;HTU21D;63735;44.730;37.818;2022-11-20T14:07:47;17.91;65.16
75155;HTU21D;63735;44.730;37.818;2022-11-20T14:10:27;17.91;65.35
75155;HTU21D;63735;44.730;37.818;2022-11-20T14:12:53;17.89;65.44
75155;HTU21D;63735;44.730;37.818;2022-11-20T14:15:33;17.88;65.60
75155;HTU21D;63735;44.730;37.818;2022-11-20T14:18:10;17.88;65.68
75155;HTU21D;63735;44.730;37.818;2022-11-20T14:20:37;17.83;65.84
75155;HTU21D;63735;44.730;37.818;2022-11-20T14:23:04;17.81;65.99
75155;HTU21D;63735;44.730;37.818;2022-11-20T14:25:30;17.79;66.24
75155;HTU21D;63735;44.730;37.818;2022-11-20T14:28:01;17.79;66.30
75155;HTU21D;63735;44.730;37.818;2022-11-20T14:30:36;17.76;66.38
75155;HTU21D;63735;44.730;37.818;2022-11-20T14:33:04;17.76;66.38
75155;HTU21D;63735;44.730;37.818;2022-11-20T14:35:34;17.72;66.52
75155;HTU21D;63735;44.730;37.818;2022-11-20T14:38:02;17.70;66.55
75155;HTU21D;63735;44.730;37.818;2022-11-20T14:40:31;17.66;66.63
75155;HTU21D;63735;44.730;37.818;2022-11-20T14:42:58;17.65;66.76
75155;HTU21D;63735;44.730;37.818;2022-11-20T14:45:25;17.64;66.78
75155;HTU21D;63735;44.730;37.818;2022-11-20T14:47:55;17.63;66.81
75155;HTU21D;63735;44.730;37.818;2022-11-20T14:50:22;17.64;66.84
75155;HTU21D;63735;44.730;37.818;2022-11-20T14:52:55;17.63;66.98
75155;HTU21D;63735;44.730;37.818;2022-11-20T14:55:38;17.63;66.98
75155;HTU21D;63735;44.730;37.818;2022-11-20T14:58:21;17.63;66.97
75155;HTU21D;63735;44.730;37.818;2022-11-20T15:00:59;17.60;67.09
75155;HTU21D;63735;44.730;37.818;2022-11-20T15:03:36;17.60;67.10
75155;HTU21D;63735;44.730;37.818;2022-11-20T15:06:04;17.63;67.15
75155;HTU21D;63735;44.730;37.818;2022-11-20T15:08:31;17.65;67.11
75155;HTU21D;63735;44.730;37.818;2022-11-20T15:10:57;17.64;67.10
75155;HTU21D;63735;44.730;37.818;2022-11-20T15:13:30;17.64;67.15
75155;HTU21D;63735;44.730;37.818;2022-11-20T15:15:59;17.65;67.16
75155;HTU21D;63735;44.730;37.818;2022-11-20T15:18:36;17.63;67.15
75155;HTU21D;63735;44.730;37.818;2022-11-20T15:21:06;17.63;67.17
75155;HTU21D;63735;44.730;37.818;2022-11-20T15:23:35;17.60;67.20
75155;HTU21D;63735;44.730;37.818;2022-11-20T15:26:01;17.59;67.23
75155;HTU21D;63735;44.730;37.818;2022-11-20T15:28:37;17.58;67.27
75155;HTU21D;63735;44.730;37.818;2022-11-20T15:31:05;17.55;67.31
75155;HTU21D;63735;44.730;37.818;2022-11-20T15:33:32;17.56;67.36
75155;HTU21D;63735;44.730;37.818;2022-11-20T15:35:59;17.53;67.38
75155;HTU21D;63735;44.730;37.818;2022-11-20T15:38:25;17.53;67.43
75155;HTU21D;63735;44.730;37.818;2022-11-20T15:40:51;17.49;67.48
75155;HTU21D;63735;44.730;37.818;2022-11-20T15:43:17;17.46;67.55
75155;HTU21D;63735;44.730;37.818;2022-11-20T15:45:58;17.45;67.55
75155;HTU21D;63735;44.730;37.818;2022-11-20T15:48:27;17.43;67.52
75155;HTU21D;63735;44.730;37.818;2022-11-20T15:51:27;17.41;67.63
75155;HTU21D;63735;44.730;37.818;2022-11-20T15:53:55;17.38;67.62
75155;HTU21D;63735;44.730;37.818;2022-11-20T15:56:21;17.35;67.68
75155;HTU21D;63735;44.730;37.818;2022-11-20T15:58:47;17.33;67.74
75155;HTU21D;63735;44.730;37.818;2022-11-20T16:01:18;17.33;67.74
75155;HTU21D;63735;44.730;37.818;2022-11-20T16:03:45;17.34;67.72
75155;HTU21D;63735;44.730;37.818;2022-11-20T16:06:11;17.35;67.71
75155;HTU21D;63735;44.730;37.818;2022-11-20T16:08:37;17.34;67.75
75155;HTU21D;63735;44.730;37.818;2022-11-20T16:11:03;17.33;67.78
75155;HTU21D;63735;44.730;37.818;2022-11-20T16:13:31;17.35;67.79
75155;HTU21D;63735;44.730;37.818;2022-11-20T16:16:26;17.38;67.71
75155;HTU21D;63735;44.730;37.818;2022-11-20T16:18:54;17.41;67.61
75155;HTU21D;63735;44.730;37.818;2022-11-20T16:21:20;17.43;67.57
75155;HTU21D;63735;44.730;37.818;2022-11-20T16:23:46;17.44;67.56
75155;HTU21D;63735;44.730;37.818;2022-11-20T16:26:16;17.43;67.53
75155;HTU21D;63735;44.730;37.818;2022-11-20T16:28:43;17.45;67.50
75155;HTU21D;63735;44.730;37.818;2022-11-20T16:31:11;17.44;67.52
75155;HTU21D;63735;44.730;37.818;2022-11-20T16:33:37;17.44;67.48
75155;HTU21D;63735;44.730;37.818;2022-11-20T16:36:23;17.45;67.42
75155;HTU21D;63735;44.730;37.818;2022-11-20T16:38:58;17.47;67.33
75155;HTU21D;63735;44.730;37.818;2022-11-20T16:41:26;17.46;67.34
75155;HTU21D;63735;44.730;37.818;2022-11-20T16:43:56;17.45;67.37
75155;HTU21D;63735;44.730;37.818;2022-11-20T16:46:28;17.45;67.39